EWG28E EDLW-LEPA
Flight info
| Callsign | EWG28E |
|---|---|
| Flight time | 2h 4m |
| Altitude | 37000 |
| Route | BAMSU2Q/06 BAMSU M170 NVO Y841 KENUM DCT GESLO DCT LIMGO DCT SUTAL DCT GTQ DCT POGOL DCT LASAT DCT MOROK DCT GILIR DCT GEVEA DCT INCUS DCT BALSI DCT RETNO DCT TUPOX DCT MTG DCT DIVKO DCT VATIR N852 VERSO DCT LUNIK |
| Aircraft | A319/M-SDE3FGHIRWY/LB1 |
Departure
| Time | 2026-05-01 09:58 |
|---|---|
| Airport | Dortmund Airport (EDLW) |
Arrival
| Time | 2026-05-01 12:03 |
|---|---|
| Airport | Palma de Mallorca Airport (LEPA) |
| Time | Latitude | Longitude | Altitude | Speed | Heading |
|---|---|---|---|---|---|
| 2026-05-01 09:27 | 51.51565 | 7.61221 | 434 ft | 0 kts | 332° |
| 2026-05-01 09:54 | 51.51575 | 7.61213 | 424 ft | 5 kts | 332° |
| 2026-05-01 09:54 | 51.51612 | 7.61170 | 433 ft | 8 kts | 298° |
| 2026-05-01 09:54 | 51.51592 | 7.61070 | 423 ft | 10 kts | 246° |
| 2026-05-01 09:54 | 51.51555 | 7.60951 | 431 ft | 14 kts | 241° |
| 2026-05-01 09:55 | 51.51500 | 7.60793 | 417 ft | 19 kts | 240° |
| 2026-05-01 09:55 | 51.51443 | 7.60629 | 420 ft | 15 kts | 240° |
| 2026-05-01 09:55 | 51.51391 | 7.60485 | 417 ft | 16 kts | 240° |
| 2026-05-01 09:55 | 51.51355 | 7.60343 | 415 ft | 12 kts | 271° |
| 2026-05-01 09:56 | 51.51427 | 7.60249 | 409 ft | 14 kts | 332° |
| 2026-05-01 09:56 | 51.51482 | 7.60230 | 413 ft | 7 kts | 43° |
| 2026-05-01 09:56 | 51.51491 | 7.60251 | 413 ft | 0 kts | 63° |
| 2026-05-01 09:57 | 51.51557 | 7.60444 | 414 ft | 56 kts | 61° |
| 2026-05-01 09:58 | 51.51870 | 7.61329 | 416 ft | 124 kts | 60° |
| 2026-05-01 09:58 | 51.52370 | 7.62758 | 631 ft | 155 kts | 64° |
| 2026-05-01 09:58 | 51.52901 | 7.64222 | 1427 ft | 150 kts | 64° |
| 2026-05-01 09:58 | 51.53478 | 7.65644 | 2028 ft | 161 kts | 62° |
| 2026-05-01 09:59 | 51.53913 | 7.66681 | 2366 ft | 171 kts | 59° |
| 2026-05-01 09:59 | 51.54828 | 7.68913 | 3231 ft | 183 kts | 64° |
| 2026-05-01 09:59 | 51.55265 | 7.70108 | 3668 ft | 186 kts | 65° |
| 2026-05-01 09:59 | 51.55932 | 7.71952 | 4282 ft | 196 kts | 66° |
| 2026-05-01 10:00 | 51.56318 | 7.74002 | 4895 ft | 191 kts | 93° |
| 2026-05-01 10:00 | 51.56015 | 7.76071 | 5412 ft | 196 kts | 123° |
| 2026-05-01 10:00 | 51.54999 | 7.77563 | 5979 ft | 209 kts | 156° |
| 2026-05-01 10:00 | 51.53482 | 7.78003 | 6402 ft | 236 kts | 175° |
| 2026-05-01 10:01 | 51.51769 | 7.77627 | 6928 ft | 261 kts | 195° |
| 2026-05-01 10:01 | 51.50143 | 7.76175 | 7664 ft | 276 kts | 217° |
| 2026-05-01 10:01 | 51.48950 | 7.73694 | 8504 ft | 288 kts | 240° |
| 2026-05-01 10:01 | 51.48089 | 7.70755 | 9422 ft | 293 kts | 242° |
| 2026-05-01 10:02 | 51.47233 | 7.67760 | 10304 ft | 298 kts | 242° |
| 2026-05-01 10:02 | 51.46351 | 7.64667 | 10812 ft | 316 kts | 242° |
| 2026-05-01 10:02 | 51.45400 | 7.61353 | 11100 ft | 339 kts | 242° |
| 2026-05-01 10:02 | 51.44393 | 7.57844 | 11648 ft | 351 kts | 242° |
| 2026-05-01 10:03 | 51.43367 | 7.54266 | 12383 ft | 356 kts | 243° |
| 2026-05-01 10:03 | 51.42255 | 7.50710 | 13129 ft | 358 kts | 234° |
| 2026-05-01 10:03 | 51.40585 | 7.47769 | 13842 ft | 357 kts | 215° |
| 2026-05-01 10:03 | 51.38571 | 7.45423 | 14569 ft | 360 kts | 213° |
| 2026-05-01 10:04 | 51.36522 | 7.43080 | 15237 ft | 363 kts | 213° |
| 2026-05-01 10:04 | 51.34429 | 7.40688 | 15897 ft | 367 kts | 213° |
| 2026-05-01 10:04 | 51.32339 | 7.38299 | 16559 ft | 371 kts | 213° |
| 2026-05-01 10:04 | 51.30230 | 7.35887 | 17192 ft | 375 kts | 213° |
| 2026-05-01 10:05 | 51.28095 | 7.33450 | 17846 ft | 379 kts | 213° |
| 2026-05-01 10:05 | 51.25938 | 7.30988 | 18507 ft | 383 kts | 213° |
| 2026-05-01 10:05 | 51.23762 | 7.28505 | 19084 ft | 387 kts | 213° |
| 2026-05-01 10:05 | 51.21571 | 7.26011 | 19641 ft | 391 kts | 213° |
| 2026-05-01 10:06 | 51.19346 | 7.23479 | 20203 ft | 395 kts | 213° |
| 2026-05-01 10:06 | 51.17102 | 7.20928 | 20775 ft | 398 kts | 213° |
| 2026-05-01 10:06 | 51.15174 | 7.18736 | 21255 ft | 402 kts | 214° |
| 2026-05-01 10:06 | 51.12891 | 7.16142 | 21794 ft | 405 kts | 214° |
| 2026-05-01 10:07 | 51.10581 | 7.13526 | 22326 ft | 409 kts | 214° |
| 2026-05-01 10:07 | 51.08264 | 7.10906 | 22854 ft | 412 kts | 214° |
| 2026-05-01 10:07 | 51.06013 | 7.08365 | 23356 ft | 416 kts | 214° |
| 2026-05-01 10:07 | 51.03644 | 7.05700 | 23859 ft | 420 kts | 214° |
| 2026-05-01 10:08 | 50.98807 | 7.00265 | 24693 ft | 426 kts | 214° |
| 2026-05-01 10:08 | 50.96379 | 6.97534 | 25097 ft | 429 kts | 214° |
| 2026-05-01 10:08 | 50.93941 | 6.94792 | 25493 ft | 432 kts | 214° |
| 2026-05-01 10:09 | 50.91484 | 6.92036 | 25895 ft | 434 kts | 214° |
| 2026-05-01 10:09 | 50.89015 | 6.89264 | 26284 ft | 437 kts | 214° |
| 2026-05-01 10:09 | 50.86525 | 6.86471 | 26641 ft | 440 kts | 214° |
| 2026-05-01 10:09 | 50.84007 | 6.83659 | 27049 ft | 443 kts | 214° |
| 2026-05-01 10:10 | 50.81483 | 6.80852 | 27449 ft | 445 kts | 214° |
| 2026-05-01 10:10 | 50.78941 | 6.78032 | 27851 ft | 448 kts | 214° |
| 2026-05-01 10:10 | 50.73767 | 6.72289 | 28607 ft | 453 kts | 214° |
| 2026-05-01 10:11 | 50.71182 | 6.69420 | 28991 ft | 456 kts | 214° |
| 2026-05-01 10:11 | 50.68589 | 6.66546 | 29341 ft | 458 kts | 214° |
| 2026-05-01 10:11 | 50.65973 | 6.63652 | 29707 ft | 461 kts | 214° |
| 2026-05-01 10:11 | 50.63340 | 6.60742 | 30059 ft | 463 kts | 214° |
| 2026-05-01 10:12 | 50.60695 | 6.57825 | 30410 ft | 465 kts | 214° |
| 2026-05-01 10:12 | 50.58035 | 6.54900 | 30709 ft | 467 kts | 214° |
| 2026-05-01 10:12 | 50.52682 | 6.49030 | 31316 ft | 470 kts | 214° |
| 2026-05-01 10:13 | 50.50007 | 6.46099 | 31736 ft | 468 kts | 214° |
| 2026-05-01 10:13 | 50.47346 | 6.43186 | 32172 ft | 465 kts | 214° |
| 2026-05-01 10:13 | 50.44693 | 6.40290 | 32602 ft | 464 kts | 213° |
| 2026-05-01 10:14 | 50.39411 | 6.34529 | 33482 ft | 461 kts | 214° |
| 2026-05-01 10:14 | 50.36789 | 6.31666 | 33888 ft | 459 kts | 214° |
| 2026-05-01 10:14 | 50.34167 | 6.28813 | 34321 ft | 458 kts | 213° |
| 2026-05-01 10:14 | 50.31558 | 6.25981 | 34697 ft | 456 kts | 213° |
| 2026-05-01 10:15 | 50.28953 | 6.23158 | 35060 ft | 455 kts | 213° |
| 2026-05-01 10:15 | 50.26358 | 6.20350 | 35422 ft | 453 kts | 213° |
| 2026-05-01 10:15 | 50.23765 | 6.17550 | 35758 ft | 453 kts | 214° |
| 2026-05-01 10:15 | 50.21175 | 6.14756 | 36094 ft | 452 kts | 214° |
| 2026-05-01 10:16 | 50.18591 | 6.11971 | 36421 ft | 451 kts | 214° |
| 2026-05-01 10:16 | 50.16013 | 6.09196 | 36723 ft | 450 kts | 214° |
| 2026-05-01 10:16 | 50.10447 | 6.04890 | 37248 ft | 448 kts | 194° |
| 2026-05-01 10:17 | 50.07400 | 6.03973 | 37307 ft | 445 kts | 184° |
| 2026-05-01 10:17 | 50.01263 | 6.04823 | 37306 ft | 440 kts | 161° |
| 2026-05-01 10:17 | 49.98402 | 6.06495 | 37311 ft | 440 kts | 156° |
| 2026-05-01 10:18 | 49.89900 | 6.11877 | 37313 ft | 440 kts | 156° |
| 2026-05-01 10:19 | 49.84226 | 6.15408 | 37317 ft | 440 kts | 156° |
| 2026-05-01 10:19 | 49.78545 | 6.18939 | 37323 ft | 440 kts | 156° |
| 2026-05-01 10:20 | 49.70028 | 6.24248 | 37326 ft | 441 kts | 156° |
| 2026-05-01 10:20 | 49.64322 | 6.27794 | 37327 ft | 441 kts | 156° |
| 2026-05-01 10:21 | 49.55789 | 6.33238 | 37326 ft | 441 kts | 155° |
| 2026-05-01 10:22 | 49.47300 | 6.38755 | 37321 ft | 441 kts | 155° |
| 2026-05-01 10:23 | 49.38858 | 6.44414 | 37315 ft | 441 kts | 154° |
| 2026-05-01 10:23 | 49.33504 | 6.48111 | 36976 ft | 441 kts | 155° |
| 2026-05-01 10:23 | 49.30711 | 6.50029 | 37163 ft | 439 kts | 155° |
| 2026-05-01 10:24 | 49.25122 | 6.53827 | 37335 ft | 441 kts | 155° |
| 2026-05-01 10:24 | 49.19504 | 6.57621 | 37341 ft | 441 kts | 155° |
| 2026-05-01 10:25 | 49.08301 | 6.65147 | 37339 ft | 439 kts | 155° |
| 2026-05-01 10:26 | 49.02720 | 6.68885 | 37333 ft | 439 kts | 156° |
| 2026-05-01 10:26 | 48.96838 | 6.71287 | 37327 ft | 439 kts | 174° |
| 2026-05-01 10:27 | 48.90731 | 6.71318 | 37320 ft | 440 kts | 181° |
| 2026-05-01 10:28 | 48.81505 | 6.70945 | 37316 ft | 440 kts | 181° |
| 2026-05-01 10:28 | 48.72310 | 6.70597 | 37317 ft | 441 kts | 181° |
| 2026-05-01 10:29 | 48.64147 | 6.70269 | 37318 ft | 441 kts | 181° |
| 2026-05-01 10:30 | 48.51892 | 6.69794 | 37313 ft | 440 kts | 181° |
| 2026-05-01 10:31 | 48.39652 | 6.69325 | 37313 ft | 440 kts | 181° |
| 2026-05-01 10:32 | 48.30428 | 6.68972 | 37313 ft | 440 kts | 181° |
| 2026-05-01 10:33 | 48.18194 | 6.68492 | 37315 ft | 439 kts | 181° |
| 2026-05-01 10:34 | 48.09033 | 6.68156 | 37309 ft | 439 kts | 181° |
| 2026-05-01 10:34 | 48.03000 | 6.67099 | 37305 ft | 439 kts | 196° |
| 2026-05-01 10:35 | 47.94236 | 6.63145 | 37297 ft | 439 kts | 197° |
| 2026-05-01 10:35 | 47.88396 | 6.60486 | 37294 ft | 439 kts | 197° |
| 2026-05-01 10:36 | 47.79633 | 6.56510 | 37293 ft | 439 kts | 196° |
| 2026-05-01 10:37 | 47.73777 | 6.53874 | 37294 ft | 440 kts | 196° |
| 2026-05-01 10:37 | 47.64994 | 6.49933 | 37301 ft | 439 kts | 196° |
| 2026-05-01 10:38 | 47.59143 | 6.47307 | 37304 ft | 440 kts | 196° |
| 2026-05-01 10:38 | 47.53285 | 6.44698 | 37306 ft | 439 kts | 196° |
| 2026-05-01 10:39 | 47.47428 | 6.42087 | 37305 ft | 439 kts | 197° |
| 2026-05-01 10:39 | 47.41542 | 6.39453 | 37305 ft | 439 kts | 196° |
| 2026-05-01 10:40 | 47.35685 | 6.36857 | 37300 ft | 440 kts | 196° |
| 2026-05-01 10:40 | 47.29820 | 6.34262 | 37300 ft | 440 kts | 196° |
| 2026-05-01 10:41 | 47.24048 | 6.31706 | 37302 ft | 440 kts | 196° |
| 2026-05-01 10:42 | 47.15249 | 6.27831 | 37306 ft | 440 kts | 196° |
| 2026-05-01 10:42 | 47.09340 | 6.25238 | 37309 ft | 440 kts | 197° |
| 2026-05-01 10:43 | 47.03351 | 6.23514 | 37305 ft | 439 kts | 185° |
| 2026-05-01 10:43 | 46.97264 | 6.22714 | 37306 ft | 440 kts | 185° |
| 2026-05-01 10:44 | 46.91164 | 6.21894 | 37310 ft | 440 kts | 185° |
| 2026-05-01 10:44 | 46.85067 | 6.21076 | 37315 ft | 440 kts | 185° |
| 2026-05-01 10:45 | 46.78967 | 6.20255 | 37319 ft | 440 kts | 185° |
| 2026-05-01 10:45 | 46.72867 | 6.19451 | 37319 ft | 440 kts | 185° |
| 2026-05-01 10:46 | 46.66761 | 6.18646 | 37319 ft | 440 kts | 185° |
| 2026-05-01 10:46 | 46.60706 | 6.17840 | 37319 ft | 440 kts | 185° |
| 2026-05-01 10:47 | 46.54576 | 6.17037 | 37319 ft | 440 kts | 185° |
| 2026-05-01 10:47 | 46.48483 | 6.16239 | 37320 ft | 439 kts | 185° |
| 2026-05-01 10:48 | 46.42389 | 6.15440 | 37327 ft | 440 kts | 185° |
| 2026-05-01 10:48 | 46.36294 | 6.14639 | 37331 ft | 440 kts | 185° |
| 2026-05-01 10:49 | 46.30203 | 6.13848 | 37338 ft | 439 kts | 185° |
| 2026-05-01 10:49 | 46.24125 | 6.13037 | 37341 ft | 439 kts | 186° |
| 2026-05-01 10:50 | 46.18087 | 6.11798 | 37342 ft | 438 kts | 189° |
| 2026-05-01 10:50 | 46.12072 | 6.10327 | 37338 ft | 438 kts | 189° |
| 2026-05-01 10:51 | 46.06052 | 6.08904 | 37336 ft | 438 kts | 189° |
| 2026-05-01 10:51 | 46.00003 | 6.07560 | 37328 ft | 438 kts | 188° |
| 2026-05-01 10:52 | 45.93957 | 6.06248 | 37322 ft | 438 kts | 188° |
| 2026-05-01 10:52 | 45.87936 | 6.04933 | 37317 ft | 438 kts | 188° |
| 2026-05-01 10:53 | 45.81922 | 6.03600 | 37311 ft | 437 kts | 188° |
| 2026-05-01 10:53 | 45.75906 | 6.02265 | 37307 ft | 438 kts | 188° |
| 2026-05-01 10:54 | 45.69888 | 6.00937 | 37302 ft | 438 kts | 188° |
| 2026-05-01 10:54 | 45.63820 | 5.99597 | 37303 ft | 438 kts | 189° |
| 2026-05-01 10:55 | 45.57794 | 5.98277 | 37307 ft | 438 kts | 189° |
| 2026-05-01 10:55 | 45.51765 | 5.96954 | 37308 ft | 438 kts | 189° |
| 2026-05-01 10:56 | 45.45740 | 5.95578 | 37305 ft | 438 kts | 191° |
| 2026-05-01 10:56 | 45.39778 | 5.93769 | 37303 ft | 438 kts | 194° |
| 2026-05-01 10:57 | 45.33835 | 5.91772 | 37304 ft | 439 kts | 194° |
| 2026-05-01 10:57 | 45.27876 | 5.89845 | 37308 ft | 439 kts | 193° |
| 2026-05-01 10:58 | 45.21901 | 5.87996 | 37310 ft | 440 kts | 193° |
| 2026-05-01 10:58 | 45.15920 | 5.86160 | 37310 ft | 440 kts | 193° |
| 2026-05-01 10:59 | 45.09938 | 5.84318 | 37308 ft | 440 kts | 193° |
| 2026-05-01 10:59 | 45.04920 | 5.82767 | 37305 ft | 441 kts | 193° |
| 2026-05-01 11:00 | 44.98926 | 5.80913 | 37303 ft | 441 kts | 194° |
| 2026-05-01 11:00 | 44.92915 | 5.79069 | 37301 ft | 442 kts | 194° |
| 2026-05-01 11:01 | 44.86896 | 5.77222 | 37299 ft | 443 kts | 194° |
| 2026-05-01 11:01 | 44.80876 | 5.75368 | 37298 ft | 443 kts | 194° |
| 2026-05-01 11:02 | 44.74837 | 5.73521 | 37297 ft | 444 kts | 194° |
| 2026-05-01 11:02 | 44.68794 | 5.71686 | 37297 ft | 445 kts | 194° |
| 2026-05-01 11:03 | 44.62742 | 5.69847 | 37293 ft | 445 kts | 194° |
| 2026-05-01 11:03 | 44.56645 | 5.67987 | 37295 ft | 446 kts | 194° |
| 2026-05-01 11:04 | 44.50579 | 5.66145 | 37293 ft | 446 kts | 194° |
| 2026-05-01 11:04 | 44.44503 | 5.64310 | 37295 ft | 447 kts | 194° |
| 2026-05-01 11:05 | 44.38424 | 5.62429 | 37294 ft | 447 kts | 198° |
| 2026-05-01 11:05 | 44.32626 | 5.59406 | 37296 ft | 445 kts | 204° |
| 2026-05-01 11:06 | 44.26863 | 5.56241 | 37300 ft | 445 kts | 204° |
| 2026-05-01 11:06 | 44.21087 | 5.53093 | 37300 ft | 446 kts | 204° |
| 2026-05-01 11:07 | 44.12423 | 5.48374 | 37308 ft | 446 kts | 204° |
| 2026-05-01 11:07 | 44.06646 | 5.45222 | 37310 ft | 446 kts | 204° |
| 2026-05-01 11:08 | 44.00868 | 5.42077 | 37316 ft | 446 kts | 204° |
| 2026-05-01 11:09 | 43.92202 | 5.37390 | 37312 ft | 445 kts | 204° |
| 2026-05-01 11:09 | 43.86429 | 5.34274 | 37315 ft | 446 kts | 204° |
| 2026-05-01 11:10 | 43.77763 | 5.29610 | 37317 ft | 445 kts | 204° |
| 2026-05-01 11:10 | 43.72002 | 5.26508 | 37319 ft | 445 kts | 204° |
| 2026-05-01 11:11 | 43.66194 | 5.23387 | 37321 ft | 444 kts | 204° |
| 2026-05-01 11:11 | 43.60438 | 5.20305 | 37320 ft | 443 kts | 204° |
| 2026-05-01 11:12 | 43.54689 | 5.17235 | 37320 ft | 443 kts | 204° |
| 2026-05-01 11:12 | 43.48944 | 5.14167 | 37321 ft | 442 kts | 204° |
| 2026-05-01 11:13 | 43.43206 | 5.11113 | 37320 ft | 442 kts | 204° |
| 2026-05-01 11:13 | 43.37619 | 5.07689 | 37317 ft | 437 kts | 214° |
| 2026-05-01 11:14 | 43.32616 | 5.03001 | 37319 ft | 435 kts | 218° |
| 2026-05-01 11:14 | 43.27628 | 4.98295 | 37320 ft | 435 kts | 217° |
| 2026-05-01 11:15 | 43.22633 | 4.93617 | 37320 ft | 435 kts | 217° |
| 2026-05-01 11:15 | 43.17646 | 4.88947 | 37320 ft | 434 kts | 217° |
| 2026-05-01 11:16 | 43.12659 | 4.84277 | 37320 ft | 434 kts | 217° |
| 2026-05-01 11:16 | 43.07641 | 4.79585 | 37320 ft | 433 kts | 217° |
| 2026-05-01 11:17 | 43.02482 | 4.75299 | 37319 ft | 435 kts | 212° |
| 2026-05-01 11:17 | 42.97183 | 4.71288 | 37320 ft | 435 kts | 212° |
| 2026-05-01 11:18 | 42.91881 | 4.67279 | 37322 ft | 435 kts | 212° |
| 2026-05-01 11:18 | 42.86591 | 4.63274 | 37319 ft | 435 kts | 212° |
| 2026-05-01 11:19 | 42.81300 | 4.59280 | 37320 ft | 434 kts | 212° |
| 2026-05-01 11:19 | 42.76012 | 4.55304 | 37321 ft | 434 kts | 212° |
| 2026-05-01 11:20 | 42.70730 | 4.51343 | 37322 ft | 433 kts | 212° |
| 2026-05-01 11:20 | 42.65461 | 4.47387 | 37318 ft | 432 kts | 212° |
| 2026-05-01 11:21 | 42.60190 | 4.43440 | 37317 ft | 432 kts | 211° |
| 2026-05-01 11:21 | 42.54922 | 4.39503 | 37316 ft | 432 kts | 211° |
| 2026-05-01 11:22 | 42.49656 | 4.35570 | 37313 ft | 432 kts | 211° |
| 2026-05-01 11:22 | 42.44395 | 4.31646 | 37314 ft | 431 kts | 211° |
| 2026-05-01 11:23 | 42.39133 | 4.27738 | 37316 ft | 431 kts | 211° |
| 2026-05-01 11:23 | 42.33839 | 4.23822 | 37315 ft | 431 kts | 211° |
| 2026-05-01 11:24 | 42.28573 | 4.19944 | 37312 ft | 431 kts | 211° |
| 2026-05-01 11:25 | 42.20689 | 4.14131 | 37309 ft | 430 kts | 211° |
| 2026-05-01 11:25 | 42.12842 | 4.08336 | 37281 ft | 428 kts | 211° |
| 2026-05-01 11:26 | 42.05008 | 4.02587 | 37265 ft | 427 kts | 211° |
| 2026-05-01 11:27 | 41.99787 | 3.98762 | 37269 ft | 428 kts | 211° |
| 2026-05-01 11:27 | 41.94544 | 3.94955 | 37272 ft | 429 kts | 208° |
| 2026-05-01 11:28 | 41.88836 | 3.92527 | 37276 ft | 435 kts | 192° |
| 2026-05-01 11:28 | 41.82871 | 3.91168 | 37275 ft | 435 kts | 192° |
| 2026-05-01 11:29 | 41.73927 | 3.89102 | 37272 ft | 435 kts | 192° |
| 2026-05-01 11:30 | 41.64974 | 3.87041 | 37275 ft | 435 kts | 192° |
| 2026-05-01 11:30 | 41.59981 | 3.85899 | 37275 ft | 435 kts | 192° |
| 2026-05-01 11:31 | 41.54022 | 3.84537 | 37274 ft | 434 kts | 192° |
| 2026-05-01 11:31 | 41.48066 | 3.83174 | 37276 ft | 434 kts | 192° |
| 2026-05-01 11:32 | 41.42113 | 3.81807 | 37278 ft | 434 kts | 192° |
| 2026-05-01 11:32 | 41.36165 | 3.80440 | 37278 ft | 433 kts | 192° |
| 2026-05-01 11:33 | 41.30226 | 3.79086 | 37280 ft | 433 kts | 192° |
| 2026-05-01 11:33 | 41.24292 | 3.77744 | 37277 ft | 433 kts | 192° |
| 2026-05-01 11:34 | 41.18360 | 3.76403 | 37275 ft | 432 kts | 192° |
| 2026-05-01 11:34 | 41.12603 | 3.74306 | 37269 ft | 427 kts | 204° |
| 2026-05-01 11:35 | 41.07076 | 3.71431 | 37263 ft | 426 kts | 204° |
| 2026-05-01 11:35 | 41.01547 | 3.68598 | 37261 ft | 426 kts | 204° |
| 2026-05-01 11:36 | 40.96021 | 3.65766 | 37259 ft | 426 kts | 204° |
| 2026-05-01 11:36 | 40.90462 | 3.62921 | 37256 ft | 425 kts | 204° |
| 2026-05-01 11:37 | 40.84945 | 3.60095 | 37254 ft | 425 kts | 204° |
| 2026-05-01 11:37 | 40.82184 | 3.58677 | 37098 ft | 427 kts | 204° |
| 2026-05-01 11:37 | 40.79406 | 3.57252 | 36474 ft | 427 kts | 204° |
| 2026-05-01 11:37 | 40.76636 | 3.55835 | 35849 ft | 427 kts | 204° |
| 2026-05-01 11:38 | 40.73864 | 3.54419 | 35224 ft | 429 kts | 204° |
| 2026-05-01 11:38 | 40.71077 | 3.53000 | 34600 ft | 430 kts | 204° |
| 2026-05-01 11:38 | 40.68279 | 3.51578 | 33974 ft | 431 kts | 204° |
| 2026-05-01 11:38 | 40.65478 | 3.50157 | 33347 ft | 432 kts | 204° |
| 2026-05-01 11:39 | 40.62672 | 3.48734 | 32721 ft | 433 kts | 204° |
| 2026-05-01 11:39 | 40.59850 | 3.47299 | 32092 ft | 435 kts | 204° |
| 2026-05-01 11:39 | 40.57034 | 3.45866 | 31466 ft | 433 kts | 204° |
| 2026-05-01 11:39 | 40.54231 | 3.44441 | 30840 ft | 431 kts | 204° |
| 2026-05-01 11:40 | 40.51442 | 3.43027 | 30212 ft | 428 kts | 204° |
| 2026-05-01 11:40 | 40.48667 | 3.41626 | 29585 ft | 426 kts | 204° |
| 2026-05-01 11:40 | 40.45878 | 3.40349 | 28964 ft | 425 kts | 198° |
| 2026-05-01 11:40 | 40.42977 | 3.39607 | 28332 ft | 426 kts | 188° |
| 2026-05-01 11:41 | 40.40016 | 3.39460 | 27706 ft | 426 kts | 180° |
| 2026-05-01 11:41 | 40.37064 | 3.39632 | 27082 ft | 424 kts | 179° |
| 2026-05-01 11:41 | 40.34087 | 3.39806 | 26447 ft | 421 kts | 179° |
| 2026-05-01 11:41 | 40.31167 | 3.39975 | 25821 ft | 419 kts | 179° |
| 2026-05-01 11:42 | 40.28260 | 3.40140 | 25195 ft | 417 kts | 179° |
| 2026-05-01 11:42 | 40.25364 | 3.40304 | 24564 ft | 416 kts | 179° |
| 2026-05-01 11:42 | 40.22476 | 3.40471 | 23941 ft | 415 kts | 179° |
| 2026-05-01 11:42 | 40.19595 | 3.40636 | 23315 ft | 414 kts | 179° |
| 2026-05-01 11:43 | 40.16716 | 3.40798 | 22688 ft | 414 kts | 179° |
| 2026-05-01 11:43 | 40.13839 | 3.40958 | 22061 ft | 414 kts | 179° |
| 2026-05-01 11:43 | 40.10962 | 3.41119 | 21434 ft | 414 kts | 179° |
| 2026-05-01 11:44 | 40.05222 | 3.41445 | 20182 ft | 412 kts | 179° |
| 2026-05-01 11:44 | 40.02350 | 3.41609 | 19553 ft | 412 kts | 178° |
| 2026-05-01 11:44 | 39.99490 | 3.41770 | 18927 ft | 411 kts | 179° |
| 2026-05-01 11:44 | 39.96638 | 3.41933 | 18350 ft | 409 kts | 179° |
| 2026-05-01 11:45 | 39.93808 | 3.42096 | 17850 ft | 405 kts | 179° |
| 2026-05-01 11:45 | 39.91004 | 3.42258 | 17348 ft | 401 kts | 179° |
| 2026-05-01 11:45 | 39.88235 | 3.42411 | 16848 ft | 396 kts | 179° |
| 2026-05-01 11:45 | 39.85497 | 3.42559 | 16347 ft | 392 kts | 179° |
| 2026-05-01 11:46 | 39.82786 | 3.42706 | 15846 ft | 388 kts | 179° |
| 2026-05-01 11:46 | 39.80107 | 3.42857 | 15346 ft | 383 kts | 178° |
| 2026-05-01 11:46 | 39.77461 | 3.43010 | 14845 ft | 378 kts | 178° |
| 2026-05-01 11:46 | 39.74849 | 3.43026 | 14336 ft | 373 kts | 187° |
| 2026-05-01 11:47 | 39.72348 | 3.42282 | 13840 ft | 367 kts | 201° |
| 2026-05-01 11:47 | 39.70111 | 3.40757 | 13338 ft | 361 kts | 216° |
| 2026-05-01 11:47 | 39.68274 | 3.38604 | 12838 ft | 354 kts | 230° |
| 2026-05-01 11:47 | 39.66907 | 3.35977 | 12337 ft | 349 kts | 243° |
| 2026-05-01 11:48 | 39.65831 | 3.33177 | 11850 ft | 344 kts | 244° |
| 2026-05-01 11:48 | 39.64776 | 3.30434 | 11540 ft | 335 kts | 244° |
| 2026-05-01 11:48 | 39.63745 | 3.27764 | 11238 ft | 327 kts | 244° |
| 2026-05-01 11:48 | 39.62724 | 3.25126 | 10931 ft | 319 kts | 243° |
| 2026-05-01 11:49 | 39.61735 | 3.22580 | 10634 ft | 313 kts | 243° |
| 2026-05-01 11:49 | 39.60768 | 3.20086 | 10333 ft | 307 kts | 243° |
| 2026-05-01 11:49 | 39.59818 | 3.17631 | 10032 ft | 302 kts | 243° |
| 2026-05-01 11:49 | 39.58886 | 3.15218 | 9732 ft | 297 kts | 244° |
| 2026-05-01 11:50 | 39.58153 | 3.13322 | 9489 ft | 294 kts | 243° |
| 2026-05-01 11:50 | 39.57650 | 3.12028 | 9362 ft | 292 kts | 243° |
| 2026-05-01 11:50 | 39.56720 | 3.09673 | 9079 ft | 294 kts | 242° |
| 2026-05-01 11:51 | 39.55799 | 3.07311 | 8778 ft | 293 kts | 243° |
| 2026-05-01 11:51 | 39.54890 | 3.04962 | 8469 ft | 292 kts | 243° |
| 2026-05-01 11:51 | 39.53982 | 3.02610 | 8176 ft | 291 kts | 243° |
| 2026-05-01 11:51 | 39.53077 | 3.00272 | 7875 ft | 290 kts | 242° |
| 2026-05-01 11:52 | 39.52161 | 2.97918 | 7571 ft | 288 kts | 242° |
| 2026-05-01 11:52 | 39.51261 | 2.95606 | 7278 ft | 287 kts | 242° |
| 2026-05-01 11:52 | 39.50363 | 2.93303 | 6969 ft | 284 kts | 242° |
| 2026-05-01 11:52 | 39.49481 | 2.91043 | 6666 ft | 279 kts | 242° |
| 2026-05-01 11:53 | 39.48615 | 2.88828 | 6361 ft | 273 kts | 242° |
| 2026-05-01 11:53 | 39.47766 | 2.86657 | 6063 ft | 268 kts | 242° |
| 2026-05-01 11:53 | 39.46928 | 2.84520 | 5762 ft | 264 kts | 242° |
| 2026-05-01 11:53 | 39.46105 | 2.82420 | 5462 ft | 259 kts | 242° |
| 2026-05-01 11:54 | 39.45298 | 2.80359 | 5158 ft | 255 kts | 242° |
| 2026-05-01 11:54 | 39.44500 | 2.78329 | 4860 ft | 251 kts | 242° |
| 2026-05-01 11:54 | 39.43713 | 2.76327 | 4564 ft | 250 kts | 242° |
| 2026-05-01 11:54 | 39.42918 | 2.74308 | 4257 ft | 253 kts | 242° |
| 2026-05-01 11:55 | 39.42119 | 2.72279 | 3956 ft | 253 kts | 242° |
| 2026-05-01 11:55 | 39.41324 | 2.70262 | 3656 ft | 252 kts | 242° |
| 2026-05-01 11:55 | 39.40534 | 2.68249 | 3356 ft | 250 kts | 242° |
| 2026-05-01 11:55 | 39.39748 | 2.66246 | 3082 ft | 247 kts | 242° |
| 2026-05-01 11:56 | 39.38989 | 2.64303 | 3003 ft | 239 kts | 242° |
| 2026-05-01 11:56 | 39.38448 | 2.62275 | 3008 ft | 241 kts | 261° |
| 2026-05-01 11:56 | 39.38485 | 2.60119 | 3008 ft | 241 kts | 282° |
| 2026-05-01 11:56 | 39.39053 | 2.58131 | 3008 ft | 229 kts | 301° |
| 2026-05-01 11:57 | 39.39988 | 2.56517 | 3010 ft | 222 kts | 312° |
| 2026-05-01 11:57 | 39.40677 | 2.55513 | 3009 ft | 220 kts | 315° |
| 2026-05-01 11:57 | 39.42109 | 2.53686 | 2804 ft | 214 kts | 320° |
| 2026-05-01 11:57 | 39.43359 | 2.52739 | 2627 ft | 206 kts | 347° |
| 2026-05-01 11:58 | 39.44743 | 2.52632 | 2452 ft | 195 kts | 14° |
| 2026-05-01 11:58 | 39.45947 | 2.53270 | 2355 ft | 182 kts | 39° |
| 2026-05-01 11:58 | 39.47411 | 2.55698 | 2299 ft | 168 kts | 60° |
| 2026-05-01 11:59 | 39.48029 | 2.56992 | 2304 ft | 167 kts | 60° |
| 2026-05-01 11:59 | 39.48639 | 2.58273 | 2218 ft | 167 kts | 60° |
| 2026-05-01 11:59 | 39.49248 | 2.59553 | 2047 ft | 167 kts | 59° |
| 2026-05-01 12:00 | 39.50439 | 2.62060 | 1631 ft | 155 kts | 59° |
| 2026-05-01 12:00 | 39.50984 | 2.63206 | 1441 ft | 143 kts | 59° |
| 2026-05-01 12:00 | 39.51936 | 2.65227 | 999 ft | 127 kts | 58° |
| 2026-05-01 12:01 | 39.52247 | 2.65886 | 895 ft | 127 kts | 58° |
| 2026-05-01 12:01 | 39.52719 | 2.66856 | 771 ft | 127 kts | 56° |
| 2026-05-01 12:01 | 39.53184 | 2.67823 | 630 ft | 125 kts | 58° |
| 2026-05-01 12:01 | 39.53634 | 2.68781 | 468 ft | 125 kts | 59° |
| 2026-05-01 12:02 | 39.54084 | 2.69740 | 301 ft | 125 kts | 59° |
| 2026-05-01 12:02 | 39.54539 | 2.70696 | 148 ft | 125 kts | 58° |
| 2026-05-01 12:02 | 39.54987 | 2.71646 | 42 ft | 116 kts | 57° |
| 2026-05-01 12:02 | 39.55340 | 2.72390 | 38 ft | 77 kts | 58° |
| 2026-05-01 12:03 | 39.55572 | 2.72880 | 38 ft | 49 kts | 58° |
| 2026-05-01 12:03 | 39.55699 | 2.73152 | 38 ft | 21 kts | 64° |
| 2026-05-01 12:03 | 39.55717 | 2.73337 | 38 ft | 21 kts | 88° |
| 2026-05-01 12:03 | 39.55721 | 2.73475 | 38 ft | 0 kts | 89° |
| 2026-05-01 12:05 | 39.55719 | 2.73498 | 38 ft | 7 kts | 99° |
| 2026-05-01 12:05 | 39.55600 | 2.73517 | 38 ft | 13 kts | 153° |
| 2026-05-01 12:05 | 39.55510 | 2.73586 | 38 ft | 16 kts | 149° |
| 2026-05-01 12:06 | 39.55410 | 2.73665 | 38 ft | 17 kts | 149° |
| 2026-05-01 12:06 | 39.55303 | 2.73749 | 37 ft | 18 kts | 149° |
| 2026-05-01 12:06 | 39.55197 | 2.73824 | 38 ft | 12 kts | 179° |
| 2026-05-01 12:06 | 39.55172 | 2.73751 | 38 ft | 11 kts | 294° |
| 2026-05-01 12:07 | 39.55161 | 2.73655 | 36 ft | 12 kts | 239° |
| 2026-05-01 12:07 | 39.55116 | 2.73560 | 37 ft | 13 kts | 239° |
| 2026-05-01 12:07 | 39.55071 | 2.73526 | 38 ft | 8 kts | 165° |
| 2026-05-01 12:07 | 39.55044 | 2.73535 | 38 ft | 1 kts | 163° |
| 2026-05-01 12:08 | 39.55040 | 2.73537 | 38 ft | 0 kts | 164° |